createdAt,value
2022-09-28T00:02:13.059Z,80.23
2022-09-28T00:04:42.541Z,79.98
2022-09-28T00:07:10.172Z,79.92
2022-09-28T00:09:38.504Z,79.76
2022-09-28T00:12:06.818Z,79.98
2022-09-28T00:14:34.392Z,80.37
2022-09-28T00:17:02.286Z,80.09
2022-09-28T00:19:29.843Z,80.61
2022-09-28T00:21:57.481Z,80.00
2022-09-28T00:24:27.642Z,80.25
2022-09-28T00:26:55.964Z,80.10
2022-09-28T00:29:23.892Z,80.64
2022-09-28T00:31:52.477Z,79.91
2022-09-28T00:34:20.088Z,80.06
2022-09-28T00:36:48.183Z,80.23
2022-09-28T00:39:15.811Z,80.37
2022-09-28T00:41:43.740Z,79.93
2022-09-28T00:44:11.449Z,80.26
2022-09-28T00:46:39.009Z,80.25
2022-09-28T00:49:07.612Z,80.16
2022-09-28T00:51:35.213Z,80.44
2022-09-28T00:54:03.351Z,80.53
2022-09-28T00:56:30.935Z,80.39
2022-09-28T00:58:59.141Z,80.05
2022-09-28T01:01:26.720Z,80.14
2022-09-28T01:03:54.872Z,80.17
2022-09-28T01:06:22.770Z,79.93
2022-09-28T01:08:50.931Z,79.66
2022-09-28T01:11:18.455Z,80.23
2022-09-28T01:13:46.058Z,79.97
2022-09-28T01:16:13.664Z,79.88
2022-09-28T01:18:41.770Z,80.04
2022-09-28T01:21:09.396Z,80.07
2022-09-28T01:23:36.943Z,80.59
2022-09-28T01:26:04.546Z,80.12
2022-09-28T01:28:32.164Z,80.29
2022-09-28T01:31:01.246Z,80.21
2022-09-28T01:33:28.784Z,80.35
2022-09-28T01:35:57.063Z,80.28
2022-09-28T01:38:24.588Z,80.08
2022-09-28T01:40:52.191Z,80.08
2022-09-28T01:43:20.164Z,80.12
2022-09-28T01:45:47.736Z,80.37
2022-09-28T01:48:15.353Z,79.62
2022-09-28T01:50:42.918Z,80.61
2022-09-28T01:53:10.817Z,80.03
2022-09-28T01:55:39.157Z,79.92
2022-09-28T01:58:06.742Z,79.87
2022-09-28T02:00:34.369Z,79.80
2022-09-28T02:03:02.037Z,79.99
2022-09-28T02:05:29.620Z,80.19
2022-09-28T02:07:57.997Z,80.74
2022-09-28T02:10:25.717Z,80.69
2022-09-28T02:12:53.455Z,80.73
2022-09-28T02:15:21.493Z,80.69
2022-09-28T02:17:49.048Z,80.42
2022-09-28T02:20:17.024Z,80.41
2022-09-28T02:22:44.576Z,80.53
2022-09-28T02:25:12.134Z,80.53
2022-09-28T02:27:40.001Z,80.14
2022-09-28T02:30:07.634Z,80.41
2022-09-28T02:32:35.873Z,80.51
2022-09-28T02:35:03.500Z,80.75
2022-09-28T02:37:31.433Z,80.72
2022-09-28T02:39:58.999Z,80.65
2022-09-28T02:42:26.621Z,80.39
2022-09-28T02:44:54.516Z,80.25
2022-09-28T02:47:22.597Z,80.36
2022-09-28T02:49:50.192Z,80.56
2022-09-28T02:52:17.750Z,80.08
2022-09-28T02:54:45.341Z,80.25
2022-09-28T02:57:13.153Z,80.13
2022-09-28T02:59:41.021Z,80.27
2022-09-28T03:02:08.706Z,80.25
2022-09-28T03:04:36.312Z,80.35
2022-09-28T03:07:03.878Z,79.80
2022-09-28T03:09:31.647Z,80.62
2022-09-28T03:11:59.252Z,80.31
2022-09-28T03:14:26.850Z,80.77
2022-09-28T03:16:54.392Z,80.40
2022-09-28T03:19:22.000Z,80.27
2022-09-28T03:21:51.869Z,80.70
2022-09-28T03:24:19.529Z,80.29
2022-09-28T03:26:47.110Z,80.59
2022-09-28T03:29:15.027Z,80.58
2022-09-28T03:31:44.369Z,80.56
2022-09-28T03:34:12.372Z,80.52
2022-09-28T03:36:39.941Z,80.28
2022-09-28T03:39:07.531Z,80.35
2022-09-28T03:41:35.118Z,80.13
2022-09-28T03:44:02.685Z,80.50
2022-09-28T03:46:30.555Z,80.31
2022-09-28T03:48:58.459Z,80.00
2022-09-28T03:51:26.005Z,80.13
2022-09-28T03:53:53.578Z,80.48
2022-09-28T03:56:21.177Z,80.38
2022-09-28T03:58:49.292Z,80.34
2022-09-28T04:01:18.020Z,80.16
2022-09-28T04:03:45.982Z,80.15
2022-09-28T04:06:14.044Z,79.92
2022-09-28T04:08:43.135Z,80.56
2022-09-28T04:11:11.274Z,80.36
2022-09-28T04:13:38.861Z,80.12
2022-09-28T04:16:06.711Z,79.83
2022-09-28T04:18:35.376Z,80.30
2022-09-28T04:21:06.749Z,80.03
2022-09-28T04:23:35.040Z,80.21
2022-09-28T04:26:02.658Z,80.29
2022-09-28T04:28:48.123Z,80.24
2022-09-28T04:31:15.782Z,80.37
2022-09-28T04:33:44.418Z,80.05
2022-09-28T04:36:11.980Z,80.31
2022-09-28T04:38:52.802Z,80.51
2022-09-28T04:41:22.519Z,80.23
2022-09-28T04:43:51.080Z,80.41
2022-09-28T04:46:18.709Z,80.41
2022-09-28T04:48:46.329Z,80.32
2022-09-28T04:51:13.931Z,80.29
2022-09-28T04:53:41.473Z,80.74
2022-09-28T04:56:09.608Z,80.63
2022-09-28T04:58:37.225Z,80.74
2022-09-28T05:01:05.397Z,80.82
2022-09-28T05:03:33.005Z,80.58
2022-09-28T05:06:01.235Z,80.55
2022-09-28T05:08:29.121Z,80.48
2022-09-28T05:10:56.715Z,81.06
2022-09-28T05:13:24.459Z,79.84
2022-09-28T05:15:54.995Z,80.86
2022-09-28T05:18:25.156Z,80.51
2022-09-28T05:20:52.971Z,80.09
2022-09-28T05:23:20.729Z,80.56
2022-09-28T05:25:48.332Z,80.48
2022-09-28T05:28:15.934Z,80.41
2022-09-28T05:30:43.753Z,80.31
2022-09-28T05:33:11.951Z,80.15
2022-09-28T05:35:39.582Z,80.25
2022-09-28T05:38:07.182Z,80.51
2022-09-28T05:40:34.865Z,80.08
2022-09-28T05:43:02.732Z,80.19
2022-09-28T05:45:30.731Z,80.29
2022-09-28T05:47:58.359Z,80.35
2022-09-28T05:50:26.040Z,79.77
2022-09-28T05:52:53.963Z,80.38
2022-09-28T05:55:21.547Z,80.02
2022-09-28T05:57:49.712Z,79.99
2022-09-28T06:00:17.295Z,80.04
2022-09-28T06:02:44.971Z,79.64
2022-09-28T06:05:12.644Z,80.26
2022-09-28T06:07:40.598Z,80.00
2022-09-28T06:10:08.821Z,80.12
2022-09-28T06:12:36.530Z,80.00
2022-09-28T06:15:04.456Z,80.41
2022-09-28T06:17:32.117Z,80.30
2022-09-28T06:19:59.879Z,80.06
2022-09-28T06:22:28.014Z,80.17
2022-09-28T06:24:55.767Z,79.64
2022-09-28T06:27:23.454Z,79.95
2022-09-28T06:29:51.039Z,79.97
2022-09-28T06:32:18.680Z,79.94
2022-09-28T06:34:46.883Z,80.12
2022-09-28T06:37:14.845Z,80.10
2022-09-28T06:39:42.507Z,79.79
2022-09-28T06:42:10.467Z,80.06
2022-09-28T06:44:40.271Z,79.97
2022-09-28T06:47:08.490Z,79.79
2022-09-28T06:49:36.186Z,79.56
2022-09-28T06:52:03.900Z,79.08
2022-09-28T06:54:31.513Z,79.21
2022-09-28T06:56:59.208Z,79.67
2022-09-28T06:59:27.756Z,79.48
2022-09-28T07:01:55.570Z,79.19
2022-09-28T07:04:23.344Z,79.59
2022-09-28T07:06:51.003Z,79.59
2022-09-28T07:09:31.536Z,78.75
2022-09-28T07:12:00.786Z,78.80
2022-09-28T07:14:46.305Z,78.91
2022-09-28T07:17:15.477Z,78.89
2022-09-28T07:19:43.575Z,78.61
2022-09-28T07:22:18.777Z,78.74
2022-09-28T07:24:46.789Z,78.86
2022-09-28T07:27:14.379Z,78.76
2022-09-28T07:29:42.083Z,78.45
2022-09-28T07:32:09.913Z,77.75
2022-09-28T07:34:41.874Z,78.10
2022-09-28T07:37:11.935Z,78.23
2022-09-28T07:39:53.279Z,77.91
2022-09-28T07:42:20.988Z,77.96
2022-09-28T07:44:49.516Z,78.00
2022-09-28T07:47:18.092Z,77.88
2022-09-28T07:49:45.821Z,77.88
2022-09-28T07:52:13.564Z,77.95
2022-09-28T07:54:41.284Z,77.96
2022-09-28T07:57:09.455Z,78.12
2022-09-28T07:59:37.240Z,78.10
2022-09-28T08:02:04.905Z,78.17
2022-09-28T08:04:32.890Z,78.63
2022-09-28T08:07:00.749Z,78.25
2022-09-28T08:09:28.607Z,77.78
2022-09-28T08:11:56.421Z,78.36
2022-09-28T08:14:24.915Z,78.62
2022-09-28T08:16:53.349Z,79.03
2022-09-28T08:19:21.262Z,79.02
2022-09-28T08:21:48.486Z,79.24
2022-09-28T08:24:16.325Z,79.28
2022-09-28T08:26:44.477Z,79.57
2022-09-28T08:29:12.200Z,79.63
2022-09-28T08:31:40.011Z,79.52
2022-09-28T08:34:08.201Z,79.53
2022-09-28T08:36:36.126Z,79.62
2022-09-28T08:39:03.964Z,79.58
2022-09-28T08:41:31.726Z,79.42
2022-09-28T08:43:59.438Z,79.33
2022-09-28T08:46:27.602Z,79.27
2022-09-28T08:49:20.529Z,79.51
2022-09-28T08:51:43.393Z,79.17
2022-09-28T08:54:12.050Z,79.41
2022-09-28T08:56:40.256Z,79.21
2022-09-28T08:59:08.583Z,79.68
2022-09-28T09:01:36.369Z,79.30
2022-09-28T09:04:04.659Z,79.21
2022-09-28T09:06:32.326Z,78.58
2022-09-28T09:09:01.309Z,79.07
2022-09-28T09:11:29.275Z,78.83
2022-09-28T09:13:57.456Z,78.92
2022-09-28T09:16:25.504Z,79.12
2022-09-28T09:18:53.538Z,78.35
2022-09-28T09:21:21.665Z,77.98
2022-09-28T09:23:50.028Z,78.14
2022-09-28T09:26:22.988Z,77.90
2022-09-28T09:28:52.189Z,77.63
2022-09-28T09:31:22.752Z,77.45
2022-09-28T09:33:52.734Z,77.34
2022-09-28T09:36:20.475Z,77.22
2022-09-28T09:38:48.199Z,77.21
2022-09-28T09:41:16.071Z,77.06
2022-09-28T09:43:43.896Z,76.46
2022-09-28T09:46:12.448Z,76.45
2022-09-28T09:48:40.189Z,76.81
2022-09-28T09:51:08.058Z,76.82
2022-09-28T09:53:38.337Z,76.79
2022-09-28T09:56:06.646Z,76.58
2022-09-28T09:58:35.493Z,76.47
2022-09-28T10:01:03.444Z,76.98
2022-09-28T10:03:31.516Z,76.37
2022-09-28T10:05:59.360Z,76.43
2022-09-28T10:08:27.751Z,76.61
2022-09-28T10:10:55.814Z,76.10
2022-09-28T10:13:23.738Z,75.99
2022-09-28T10:15:51.872Z,76.44
2022-09-28T10:18:19.622Z,76.14
2022-09-28T10:20:47.453Z,76.18
2022-09-28T10:23:15.785Z,75.81
2022-09-28T10:25:43.586Z,76.10
2022-09-28T10:28:11.358Z,76.70
2022-09-28T10:30:44.703Z,76.50
2022-09-28T10:33:12.714Z,76.89
2022-09-28T10:35:41.276Z,76.64
2022-09-28T10:38:09.181Z,76.63
2022-09-28T10:40:37.107Z,77.33
2022-09-28T10:43:05.178Z,77.41
2022-09-28T10:45:33.098Z,78.02
2022-09-28T10:48:02.227Z,78.05
2022-09-28T10:50:30.318Z,78.30
2022-09-28T10:52:58.508Z,78.83
2022-09-28T10:55:26.312Z,78.84
2022-09-28T10:57:54.470Z,79.10
2022-09-28T11:00:22.945Z,78.72
2022-09-28T11:02:50.822Z,78.02
2022-09-28T11:05:18.627Z,77.70
2022-09-28T11:07:46.400Z,77.69
2022-09-28T11:10:14.341Z,77.39
2022-09-28T11:12:42.691Z,77.25
2022-09-28T11:15:10.732Z,77.07
2022-09-28T11:17:39.191Z,76.51
2022-09-28T11:20:07.024Z,77.02
2022-09-28T11:22:34.771Z,76.30
2022-09-28T11:25:03.115Z,76.19
2022-09-28T11:27:31.285Z,76.29
2022-09-28T11:29:58.949Z,75.76
2022-09-28T11:32:26.831Z,76.18
2022-09-28T11:34:59.443Z,76.11
2022-09-28T11:37:31.652Z,75.84
2022-09-28T11:39:59.360Z,76.29
2022-09-28T11:42:27.217Z,75.62
2022-09-28T11:44:55.165Z,75.58
2022-09-28T11:47:23.032Z,75.74
2022-09-28T11:49:51.883Z,75.40
2022-09-28T11:52:19.770Z,75.34
2022-09-28T11:54:48.137Z,74.87
2022-09-28T11:57:15.809Z,75.11
2022-09-28T11:59:44.142Z,74.87
2022-09-28T12:02:12.745Z,74.95
2022-09-28T12:04:40.681Z,74.67
2022-09-28T12:07:08.608Z,74.96
2022-09-28T12:09:37.537Z,74.89
2022-09-28T12:12:05.472Z,74.88
2022-09-28T12:14:34.105Z,75.03
2022-09-28T12:17:07.630Z,74.96
2022-09-28T12:19:36.091Z,75.38
2022-09-28T12:22:04.272Z,74.70
2022-09-28T12:24:32.326Z,74.55
2022-09-28T12:27:01.002Z,73.81
2022-09-28T12:29:28.872Z,73.66
2022-09-28T12:31:56.702Z,73.34
2022-09-28T12:34:24.420Z,72.85
2022-09-28T12:36:52.083Z,73.43
2022-09-28T12:39:35.790Z,73.03
2022-09-28T12:42:08.689Z,73.35
2022-09-28T12:44:37.058Z,73.77
2022-09-28T12:47:06.404Z,73.06
2022-09-28T12:52:22.901Z,73.25
2022-09-28T12:54:50.972Z,73.43
2022-09-28T12:57:18.847Z,72.85
2022-09-28T12:59:46.985Z,72.66
2022-09-28T13:02:15.788Z,72.29
2022-09-28T13:04:44.356Z,72.20
2022-09-28T13:07:12.206Z,71.39
2022-09-28T13:09:40.099Z,71.38
2022-09-28T13:12:08.630Z,71.19
2022-09-28T13:14:36.528Z,72.02
2022-09-28T13:17:04.494Z,72.38
2022-09-28T13:19:32.408Z,72.94
2022-09-28T13:22:00.389Z,73.69
2022-09-28T13:24:33.508Z,73.50
2022-09-28T13:27:01.733Z,74.04
2022-09-28T13:29:29.675Z,74.50
2022-09-28T13:31:57.543Z,75.20
2022-09-28T13:34:25.295Z,75.18
2022-09-28T13:36:53.525Z,75.54
2022-09-28T13:39:21.183Z,75.44
2022-09-28T13:41:49.096Z,76.06
2022-09-28T13:44:17.762Z,76.32
2022-09-28T13:46:45.912Z,76.34
2022-09-28T13:49:14.515Z,76.09
2022-09-28T13:51:42.513Z,76.03
2022-09-28T13:54:10.398Z,75.82
2022-09-28T13:56:38.481Z,75.50
2022-09-28T13:59:06.419Z,75.04
2022-09-28T14:01:35.110Z,74.88
2022-09-28T14:04:02.939Z,75.10
2022-09-28T14:06:31.178Z,74.95
2022-09-28T14:08:59.225Z,75.16
2022-09-28T14:11:26.975Z,74.75
2022-09-28T14:13:55.432Z,74.50
2022-09-28T14:16:23.090Z,73.67
2022-09-28T14:18:51.384Z,73.00
2022-09-28T14:21:19.289Z,72.32
2022-09-28T14:23:47.285Z,72.15
2022-09-28T14:26:15.573Z,72.28
2022-09-28T14:28:43.431Z,72.99
2022-09-28T14:31:12.369Z,73.20
2022-09-28T14:33:42.914Z,72.49
2022-09-28T14:36:10.955Z,72.99
2022-09-28T14:38:56.384Z,72.96
2022-09-28T14:41:24.465Z,71.40
2022-09-28T14:43:52.383Z,70.95
2022-09-28T14:46:20.291Z,71.30
2022-09-28T14:48:48.198Z,72.13
2022-09-28T14:51:16.749Z,72.64
2022-09-28T14:53:44.693Z,72.79
2022-09-28T14:56:12.664Z,72.89
2022-09-28T14:58:40.598Z,73.49
2022-09-28T15:01:08.506Z,73.67
2022-09-28T15:03:36.644Z,72.99
2022-09-28T15:06:04.634Z,73.11
2022-09-28T15:08:33.642Z,72.89
2022-09-28T15:11:02.373Z,72.48
2022-09-28T15:13:30.362Z,73.12
2022-09-28T15:15:58.632Z,73.65
2022-09-28T15:18:29.158Z,74.22
2022-09-28T15:20:57.276Z,74.16
2022-09-28T15:23:25.102Z,74.77
2022-09-28T15:25:52.894Z,74.63
2022-09-28T15:28:22.926Z,74.61
2022-09-28T15:30:51.029Z,75.43
2022-09-28T15:33:36.458Z,75.61
2022-09-28T15:36:04.295Z,75.69
2022-09-28T15:38:34.723Z,75.62
2022-09-28T15:41:04.693Z,75.87
2022-09-28T15:43:34.168Z,76.18
2022-09-28T15:46:03.087Z,76.02
2022-09-28T15:48:31.642Z,76.47
2022-09-28T15:50:59.750Z,76.33
2022-09-28T15:53:27.593Z,76.49
2022-09-28T15:55:55.907Z,76.65
2022-09-28T15:58:24.724Z,76.34
2022-09-28T16:00:52.669Z,76.61
2022-09-28T16:03:21.362Z,76.16
2022-09-28T16:05:49.402Z,76.37
2022-09-28T16:08:21.687Z,76.41
2022-09-28T16:10:49.358Z,76.50
2022-09-28T16:13:17.370Z,76.33
2022-09-28T16:15:45.802Z,76.98
2022-09-28T16:18:16.590Z,77.36
2022-09-28T16:20:44.886Z,76.52
2022-09-28T16:23:12.769Z,77.11
2022-09-28T16:25:40.608Z,76.75
2022-09-28T16:28:09.682Z,76.70
2022-09-28T16:30:38.233Z,76.67
2022-09-28T16:33:06.209Z,77.33
2022-09-28T16:35:33.984Z,76.93
2022-09-28T16:38:01.802Z,77.13
2022-09-28T16:40:30.166Z,76.92
2022-09-28T16:42:58.243Z,77.46
2022-09-28T16:45:26.182Z,77.21
2022-09-28T16:47:54.856Z,77.72
2022-09-28T16:50:22.722Z,77.34
2022-09-28T16:53:08.004Z,77.76
2022-09-28T16:55:40.371Z,77.41
2022-09-28T16:58:08.824Z,77.89
2022-09-28T17:00:37.108Z,77.75
2022-09-28T17:03:05.767Z,77.94
2022-09-28T17:05:34.022Z,78.13
2022-09-28T17:08:02.555Z,78.18
2022-09-28T17:10:30.380Z,78.34
2022-09-28T17:12:58.357Z,78.59
2022-09-28T17:15:26.295Z,78.67
2022-09-28T17:17:56.329Z,78.32
2022-09-28T17:20:24.681Z,78.09
2022-09-28T17:22:53.609Z,78.17
2022-09-28T17:25:21.437Z,78.56
2022-09-28T17:27:49.380Z,78.34
2022-09-28T17:30:17.649Z,77.98
2022-09-28T17:32:47.458Z,78.03
2022-09-28T17:35:25.354Z,78.24
2022-09-28T17:37:53.657Z,78.49
2022-09-28T17:40:22.028Z,78.29
2022-09-28T17:42:50.032Z,78.59
2022-09-28T17:45:18.373Z,78.26
2022-09-28T17:47:46.456Z,78.49
2022-09-28T17:50:14.312Z,78.53
2022-09-28T17:52:43.036Z,78.71
2022-09-28T17:55:11.263Z,78.22
2022-09-28T17:57:39.318Z,78.38
2022-09-28T18:00:07.340Z,78.31
2022-09-28T18:02:35.365Z,78.51
2022-09-28T18:05:04.051Z,78.02
2022-09-28T18:07:34.606Z,78.18
2022-09-28T18:10:02.452Z,78.44
2022-09-28T18:12:30.444Z,78.63
2022-09-28T18:14:58.297Z,78.40
2022-09-28T18:17:26.696Z,78.66
2022-09-28T18:19:54.624Z,78.46
2022-09-28T18:22:22.604Z,78.50
2022-09-28T18:24:50.632Z,78.04
2022-09-28T18:27:19.355Z,78.39
2022-09-28T18:29:47.255Z,78.54
2022-09-28T18:32:15.399Z,78.40
2022-09-28T18:34:43.260Z,78.33
2022-09-28T18:37:11.644Z,78.69
2022-09-28T18:39:39.506Z,79.16
2022-09-28T18:42:07.665Z,79.12
2022-09-28T18:44:35.613Z,78.91
2022-09-28T18:47:03.489Z,78.91
2022-09-28T18:49:31.538Z,78.79
2022-09-28T18:51:59.322Z,78.99
2022-09-28T18:54:27.478Z,78.82
2022-09-28T18:56:56.471Z,79.34
2022-09-28T18:59:24.310Z,79.03
2022-09-28T19:01:53.270Z,79.24
2022-09-28T19:04:21.549Z,79.38
2022-09-28T19:06:53.020Z,79.50
2022-09-28T19:09:21.689Z,79.58
2022-09-28T19:11:49.513Z,79.49
2022-09-28T19:14:17.271Z,79.55
2022-09-28T19:16:45.266Z,79.34
2022-09-28T19:19:13.914Z,79.89
2022-09-28T19:21:43.439Z,80.04
2022-09-28T19:24:11.344Z,79.75
2022-09-28T19:26:39.269Z,79.71
2022-09-28T19:29:07.023Z,80.10
2022-09-28T19:31:35.765Z,79.72
2022-09-28T19:34:03.839Z,80.29
2022-09-28T19:36:31.646Z,80.11
2022-09-28T19:39:03.158Z,80.14
2022-09-28T19:41:44.570Z,80.05
2022-09-28T19:44:13.810Z,80.30
2022-09-28T19:46:41.688Z,79.83
2022-09-28T19:49:09.427Z,80.32
2022-09-28T19:51:46.985Z,80.08
2022-09-28T19:54:33.133Z,80.28
2022-09-28T19:57:08.192Z,80.46
2022-09-28T19:59:36.887Z,80.16
2022-09-28T20:02:04.882Z,80.10
2022-09-28T20:04:33.418Z,80.35
2022-09-28T20:07:01.983Z,80.06
2022-09-28T20:09:29.793Z,80.03
2022-09-28T20:11:57.760Z,79.60
2022-09-28T20:14:26.407Z,80.01
2022-09-28T20:16:59.250Z,79.84
2022-09-28T20:19:27.112Z,80.11
2022-09-28T20:21:58.862Z,80.04
2022-09-28T20:24:28.974Z,79.46
2022-09-28T20:26:56.898Z,80.18
2022-09-28T20:29:25.538Z,80.14
2022-09-28T20:31:53.427Z,80.60
2022-09-28T20:34:21.284Z,79.48
2022-09-28T20:36:49.139Z,79.90
2022-09-28T20:39:16.990Z,80.40
2022-09-28T20:41:46.718Z,80.19
2022-09-28T20:44:14.622Z,80.42
2022-09-28T20:46:44.041Z,80.24
2022-09-28T20:49:12.114Z,80.37
2022-09-28T20:51:39.887Z,79.96
2022-09-28T20:54:09.573Z,80.25
2022-09-28T20:56:38.454Z,79.93
2022-09-28T20:59:06.385Z,80.05
2022-09-28T21:01:34.396Z,80.11
2022-09-28T21:04:02.215Z,79.93
2022-09-28T21:06:30.442Z,79.96
2022-09-28T21:08:58.239Z,80.10
2022-09-28T21:11:26.091Z,79.96
2022-09-28T21:13:53.972Z,80.43
2022-09-28T21:16:22.203Z,79.91
2022-09-28T21:18:50.274Z,80.15
2022-09-28T21:21:18.049Z,80.06
2022-09-28T21:23:46.066Z,79.97
2022-09-28T21:26:13.726Z,80.03
2022-09-28T21:28:41.628Z,79.53
2022-09-28T21:31:09.506Z,80.25
2022-09-28T21:33:37.507Z,80.26
2022-09-28T21:36:05.215Z,80.24
2022-09-28T21:38:33.381Z,80.37
2022-09-28T21:41:01.117Z,80.02
2022-09-28T21:43:29.462Z,80.07
2022-09-28T21:45:57.877Z,80.60
2022-09-28T21:48:25.584Z,80.45
2022-09-28T21:50:53.338Z,80.75
2022-09-28T21:53:21.066Z,80.59
2022-09-28T21:55:52.820Z,80.64
2022-09-28T21:58:23.730Z,80.67
2022-09-28T22:00:54.601Z,80.71
2022-09-28T22:03:24.784Z,81.30
2022-09-28T22:05:52.915Z,80.77
2022-09-28T22:08:20.576Z,80.54
2022-09-28T22:10:48.242Z,80.69
2022-09-28T22:13:15.800Z,81.15
2022-09-28T22:15:43.510Z,80.89
2022-09-28T22:18:11.793Z,80.94
2022-09-28T22:20:39.395Z,80.64
2022-09-28T22:23:07.275Z,81.05
2022-09-28T22:25:34.953Z,81.07
2022-09-28T22:28:02.635Z,81.57
2022-09-28T22:30:30.825Z,81.21
2022-09-28T22:32:58.527Z,81.23
2022-09-28T22:35:26.221Z,81.15
2022-09-28T22:37:53.772Z,81.22
2022-09-28T22:40:21.457Z,81.26
2022-09-28T22:42:50.010Z,81.81
2022-09-28T22:45:17.903Z,81.60
2022-09-28T22:47:45.539Z,81.40
2022-09-28T22:50:13.250Z,81.73
2022-09-28T22:52:40.836Z,81.85
2022-09-28T22:55:09.285Z,81.50
2022-09-28T22:57:36.884Z,82.18
2022-09-28T23:00:04.578Z,81.56
2022-09-28T23:02:32.249Z,82.04
2022-09-28T23:04:59.892Z,82.05
2022-09-28T23:07:28.739Z,81.64
2022-09-28T23:09:58.387Z,82.37
2022-09-28T23:12:25.929Z,81.81
2022-09-28T23:14:53.502Z,82.25
2022-09-28T23:17:21.158Z,82.00
2022-09-28T23:19:49.574Z,82.27
2022-09-28T23:22:17.209Z,82.07
2022-09-28T23:24:44.890Z,82.25
2022-09-28T23:27:12.456Z,82.19
2022-09-28T23:29:47.010Z,82.29
2022-09-28T23:32:15.165Z,82.32
2022-09-28T23:34:42.732Z,82.53
2022-09-28T23:37:10.373Z,82.59
2022-09-28T23:39:37.952Z,82.71
2022-09-28T23:42:05.796Z,82.83
2022-09-28T23:44:33.638Z,82.35
2022-09-28T23:47:01.469Z,82.81
2022-09-28T23:49:29.743Z,82.96
2022-09-28T23:51:57.604Z,82.66
2022-09-28T23:54:25.201Z,81.90
2022-09-28T23:56:53.158Z,82.14
2022-09-28T23:59:20.794Z,82.32
